Time;durP1;ratioP1;P1;durP2;ratioP2;P2;SDS_P1;SDS_P2;PMS_P1;PMS_P2;Temp;Humidity;BMP_temperature;BMP_pressure;BME280_temperature;BME280_humidity;BME280_pressure;Samples;Min_cycle;Max_cycle;Signal;HPM_P1;HPM_P2
2022/03/01 00:02:25;;;;;;;17.33;9.03;;;-1.10;99.90;;;;;;5014744;28;20022;-75
2022/03/01 00:04:53;;;;;;;14.97;8.40;;;-1.10;99.90;;;;;;4997013;28;20137;-75
2022/03/01 00:07:19;;;;;;;19.70;9.43;;;-1.10;99.90;;;;;;5015229;28;20030;-75
2022/03/01 00:09:44;;;;;;;18.93;9.17;;;-1.00;99.90;;;;;;5014460;28;20061;-76
2022/03/01 00:12:10;;;;;;;19.17;8.97;;;-1.00;99.90;;;;;;4997128;28;20065;-75
2022/03/01 00:14:36;;;;;;;16.33;8.70;;;-0.90;99.90;;;;;;5014449;28;20048;-75
2022/03/01 00:17:01;;;;;;;15.77;8.43;;;-1.00;99.90;;;;;;5014487;28;20045;-76
2022/03/01 00:19:30;;;;;;;18.50;8.90;;;-1.10;99.90;;;;;;5014378;28;20026;-74
2022/03/01 00:21:57;;;;;;;18.77;9.47;;;-1.10;99.90;;;;;;5014058;28;20033;-74
2022/03/01 00:24:23;;;;;;;17.47;8.53;;;-1.10;99.90;;;;;;5014329;28;20030;-74
2022/03/01 00:26:49;;;;;;;15.67;8.70;;;-1.30;99.90;;;;;;4996453;28;20037;-75
2022/03/01 00:29:15;;;;;;;18.63;8.80;;;-1.30;99.90;;;;;;5014181;28;20034;-75
2022/03/01 00:31:40;;;;;;;16.20;8.40;;;-1.40;99.90;;;;;;4996426;28;20030;-75
2022/03/01 00:34:06;;;;;;;15.50;8.63;;;-1.50;99.90;;;;;;5014047;28;20029;-75
2022/03/01 00:36:32;;;;;;;19.37;9.30;;;-1.60;99.90;;;;;;4996248;28;20026;-76
2022/03/01 00:38:58;;;;;;;20.07;10.07;;;-1.70;99.90;;;;;;5013810;28;20084;-75
2022/03/01 00:41:23;;;;;;;15.30;8.93;;;-1.80;99.90;;;;;;5014385;28;20037;-75
2022/03/01 00:43:49;;;;;;;18.00;9.23;;;-1.80;99.90;;;;;;5013763;28;20553;-75
2022/03/01 00:46:15;;;;;;;16.57;9.23;;;-1.80;99.90;;;;;;5013847;28;20038;-75
2022/03/01 00:48:40;;;;;;;17.50;8.87;;;-1.80;99.90;;;;;;5014116;28;20026;-75
2022/03/01 00:51:06;;;;;;;14.53;8.93;;;-1.80;99.90;;;;;;4996061;28;20030;-75
2022/03/01 00:53:31;;;;;;;17.43;9.40;;;-1.90;99.90;;;;;;5013821;28;20026;-75
2022/03/01 00:55:57;;;;;;;20.30;9.50;;;-1.90;99.90;;;;;;4996069;28;20045;-75
2022/03/01 00:58:23;;;;;;;17.03;7.90;;;-2.00;99.90;;;;;;5013568;28;20313;-75
2022/03/01 01:00:48;;;;;;;16.50;9.30;;;-1.90;99.90;;;;;;5013511;28;20026;-75
2022/03/01 01:03:14;;;;;;;13.77;8.13;;;-1.90;99.90;;;;;;5013590;28;20054;-75
2022/03/01 01:05:39;;;;;;;15.30;8.03;;;-1.90;99.90;;;;;;5013586;28;20037;-75
2022/03/01 01:08:05;;;;;;;15.10;8.30;;;-1.90;99.90;;;;;;5013783;28;20025;-75
2022/03/01 01:10:31;;;;;;;18.70;8.90;;;-2.00;99.90;;;;;;5013450;28;20045;-75
2022/03/01 01:12:57;;;;;;;17.43;8.67;;;-2.10;99.90;;;;;;5013792;28;20022;-75
2022/03/01 01:15:22;;;;;;;18.93;8.17;;;-2.10;99.90;;;;;;5013387;28;20471;-76
2022/03/01 01:17:48;;;;;;;15.07;7.90;;;-2.10;99.90;;;;;;5013338;28;20030;-76
2022/03/01 01:20:15;;;;;;;17.30;8.40;;;-2.00;99.90;;;;;;4995727;28;20479;-75
2022/03/01 01:22:41;;;;;;;15.77;8.63;;;-2.00;99.90;;;;;;5013340;28;20030;-75
2022/03/01 01:25:12;;;;;;;16.23;8.40;;;-2.00;99.90;;;;;;5013461;28;20033;-75
2022/03/01 01:27:40;;;;;;;17.30;8.67;;;-2.10;99.90;;;;;;5013537;28;20666;-75
2022/03/01 01:30:07;;;;;;;17.27;7.40;;;-2.00;99.90;;;;;;4996435;28;20064;-75
2022/03/01 01:32:33;;;;;;;15.57;7.60;;;-2.00;99.90;;;;;;5013229;28;20025;-75
2022/03/01 01:34:59;;;;;;;16.20;8.53;;;-1.90;99.90;;;;;;5013323;28;20117;-75
2022/03/01 01:37:24;;;;;;;14.27;8.13;;;-1.90;99.90;;;;;;4996018;28;20028;-75
2022/03/01 01:39:50;;;;;;;15.80;7.60;;;-1.80;99.90;;;;;;5012966;28;20054;-75
2022/03/01 01:42:16;;;;;;;14.97;8.00;;;-1.70;99.90;;;;;;4995525;28;20032;-75
2022/03/01 01:44:43;;;;;;;14.90;8.70;;;-1.70;99.90;;;;;;5013627;28;20026;-75
2022/03/01 01:47:09;;;;;;;15.50;8.20;;;-1.70;99.90;;;;;;5013163;28;20534;-75
2022/03/01 01:49:35;;;;;;;15.67;8.23;;;-1.80;99.90;;;;;;4995494;28;20069;-75
2022/03/01 01:52:00;;;;;;;12.83;7.43;;;-1.80;99.90;;;;;;4995437;28;20030;-75
2022/03/01 01:54:26;;;;;;;16.17;8.70;;;-1.70;99.90;;;;;;5012887;28;20037;-75
2022/03/01 01:56:51;;;;;;;15.97;8.50;;;-1.90;99.90;;;;;;5013001;28;20029;-75
2022/03/01 01:59:17;;;;;;;17.33;8.13;;;-1.90;99.90;;;;;;5013407;28;20029;-75
2022/03/01 02:01:44;;;;;;;15.67;8.03;;;-2.00;99.90;;;;;;5015408;28;20101;-75
2022/03/01 02:04:10;;;;;;;16.27;8.17;;;-2.00;99.90;;;;;;4999720;28;20375;-75
2022/03/01 02:06:37;;;;;;;13.53;7.80;;;-2.00;99.90;;;;;;4999672;28;20045;-75
2022/03/01 02:09:04;;;;;;;16.97;8.77;;;-2.10;99.90;;;;;;4999427;28;20034;-75
2022/03/01 02:11:29;;;;;;;15.83;8.03;;;-2.00;99.90;;;;;;4999248;28;20128;-74
2022/03/01 02:13:55;;;;;;;19.73;8.77;;;-2.00;99.90;;;;;;5016868;28;20140;-74
2022/03/01 02:16:21;;;;;;;17.10;8.53;;;-2.10;99.90;;;;;;5016550;28;20026;-75
2022/03/01 02:18:47;;;;;;;17.80;8.07;;;-2.10;99.90;;;;;;4999303;28;20132;-74
2022/03/01 02:21:13;;;;;;;16.20;8.27;;;-2.20;99.90;;;;;;4999302;28;20378;-75
2022/03/01 02:23:39;;;;;;;17.23;9.30;;;-2.20;99.90;;;;;;4998999;28;20072;-75
2022/03/01 02:26:04;;;;;;;16.03;8.73;;;-2.30;99.90;;;;;;5016483;28;20169;-75
2022/03/01 02:28:30;;;;;;;16.73;9.20;;;-2.50;99.90;;;;;;5016441;28;20538;-74
2022/03/01 02:30:55;;;;;;;19.13;9.47;;;-2.40;99.90;;;;;;5016271;28;20046;-74
2022/03/01 02:33:21;;;;;;;19.23;9.70;;;-2.40;99.90;;;;;;5016379;28;20022;-74
2022/03/01 02:35:47;;;;;;;17.53;8.70;;;-2.30;99.90;;;;;;4998540;28;20044;-75
2022/03/01 02:38:12;;;;;;;17.73;9.40;;;-2.50;99.90;;;;;;5016132;28;20037;-75
2022/03/01 02:40:38;;;;;;;15.83;8.73;;;-2.70;99.90;;;;;;4998516;28;20049;-75
2022/03/01 02:43:05;;;;;;;24.10;11.63;;;-2.70;99.90;;;;;;5016616;28;20018;-74
2022/03/01 02:45:31;;;;;;;22.50;10.33;;;-2.70;99.90;;;;;;5016055;28;20021;-74
2022/03/01 02:47:56;;;;;;;21.77;10.93;;;-2.80;99.90;;;;;;5016079;28;20121;-74
2022/03/01 02:50:22;;;;;;;20.17;10.63;;;-2.90;99.90;;;;;;4998394;28;20467;-74
2022/03/01 02:52:47;;;;;;;20.27;11.10;;;-3.00;99.90;;;;;;5016166;28;20061;-74
2022/03/01 02:55:13;;;;;;;21.20;11.97;;;-3.00;99.90;;;;;;5016100;28;20112;-74
2022/03/01 02:57:39;;;;;;;23.20;12.03;;;-3.00;99.90;;;;;;5015817;28;20486;-74
2022/03/01 03:00:06;;;;;;;27.93;12.97;;;-3.10;99.90;;;;;;5015737;28;20030;-75
2022/03/01 03:02:32;;;;;;;24.33;13.33;;;-3.10;99.90;;;;;;5016016;28;20041;-75
2022/03/01 03:04:58;;;;;;;22.40;11.93;;;-3.10;99.90;;;;;;5015898;28;20493;-75
2022/03/01 03:07:23;;;;;;;22.60;12.40;;;-3.10;99.90;;;;;;4998002;28;20030;-75
2022/03/01 03:09:49;;;;;;;22.67;12.43;;;-3.20;99.90;;;;;;5015799;28;20048;-75
2022/03/01 03:12:14;;;;;;;26.50;11.70;;;-3.20;99.90;;;;;;4996702;28;20033;-75
2022/03/01 03:14:40;;;;;;;23.07;11.77;;;-3.20;99.90;;;;;;5015445;28;20034;-75
2022/03/01 03:17:05;;;;;;;20.77;11.03;;;-3.20;99.90;;;;;;4997914;28;20112;-75
2022/03/01 03:19:32;;;;;;;20.27;11.87;;;-3.30;99.90;;;;;;4997875;28;20022;-75
2022/03/01 03:21:58;;;;;;;20.60;10.70;;;-3.30;99.90;;;;;;5015593;28;20054;-75
2022/03/01 03:24:23;;;;;;;25.00;11.77;;;-3.40;99.90;;;;;;4997761;28;20467;-75
2022/03/01 03:26:49;;;;;;;18.07;10.77;;;-3.50;99.90;;;;;;5015635;28;20116;-75
2022/03/01 03:29:15;;;;;;;19.13;10.17;;;-3.50;99.90;;;;;;4997730;28;20030;-74
2022/03/01 03:31:42;;;;;;;23.77;10.63;;;-3.50;99.90;;;;;;5015598;28;20386;-74
2022/03/01 03:34:09;;;;;;;18.13;9.13;;;-3.50;99.90;;;;;;5015239;28;20030;-74
2022/03/01 03:36:36;;;;;;;19.53;10.33;;;-3.60;99.90;;;;;;4997649;28;20037;-74
2022/03/01 03:39:03;;;;;;;16.97;9.87;;;-3.60;99.90;;;;;;5015020;28;20432;-74
2022/03/01 03:41:29;;;;;;;18.37;9.97;;;-3.60;99.90;;;;;;4997535;28;20033;-74
2022/03/01 03:43:54;;;;;;;18.97;9.77;;;-3.60;99.90;;;;;;5015096;28;20558;-74
2022/03/01 03:46:21;;;;;;;18.00;9.47;;;-3.60;99.90;;;;;;5015271;28;20076;-74
2022/03/01 03:48:48;;;;;;;17.23;8.60;;;-3.50;99.90;;;;;;4998007;28;20033;-74
2022/03/01 03:51:14;;;;;;;15.97;8.77;;;-3.50;99.90;;;;;;4997556;28;20041;-74
2022/03/01 03:53:39;;;;;;;20.77;9.33;;;-3.50;99.90;;;;;;4997286;28;20471;-74
2022/03/01 03:56:05;;;;;;;19.77;9.50;;;-3.60;99.90;;;;;;5015093;28;20030;-74
2022/03/01 03:58:30;;;;;;;18.80;9.33;;;-3.70;99.90;;;;;;4997215;28;20467;-75
2022/03/01 04:00:57;;;;;;;19.60;10.00;;;-3.70;99.90;;;;;;5015031;28;20423;-74
2022/03/01 04:03:23;;;;;;;16.20;8.57;;;-3.80;99.90;;;;;;5014882;28;20072;-74
2022/03/01 04:05:50;;;;;;;19.07;10.80;;;-3.80;99.90;;;;;;5014618;28;20029;-74
2022/03/01 04:08:15;;;;;;;17.63;9.47;;;-3.80;99.90;;;;;;5014453;28;20129;-74
2022/03/01 04:10:41;;;;;;;21.17;9.80;;;-3.80;99.90;;;;;;4996985;28;20064;-74
2022/03/01 04:13:06;;;;;;;16.07;8.87;;;-3.80;99.90;;;;;;5014452;28;20045;-74
2022/03/01 04:15:32;;;;;;;16.93;9.20;;;-3.80;99.90;;;;;;5014347;28;20026;-74
2022/03/01 04:17:58;;;;;;;20.60;9.47;;;-3.80;99.90;;;;;;5014391;28;20021;-74
2022/03/01 04:20:24;;;;;;;21.10;10.50;;;-3.80;99.90;;;;;;4996841;28;20490;-74
2022/03/01 04:22:50;;;;;;;22.33;9.70;;;-3.90;99.90;;;;;;5014287;28;20129;-74
2022/03/01 04:25:15;;;;;;;21.13;10.50;;;-4.00;99.90;;;;;;5014058;28;20058;-75
2022/03/01 04:27:41;;;;;;;17.30;9.63;;;-4.00;99.90;;;;;;5014459;28;20424;-73
2022/03/01 04:30:08;;;;;;;17.50;9.97;;;-4.10;99.90;;;;;;5014155;28;20418;-74
2022/03/01 04:32:34;;;;;;;23.20;10.83;;;-4.10;99.90;;;;;;4997098;28;20057;-73
2022/03/01 04:35:01;;;;;;;21.90;10.43;;;-4.20;99.90;;;;;;5014262;28;20026;-74
2022/03/01 04:37:26;;;;;;;21.97;12.57;;;-4.20;99.90;;;;;;4996411;28;20379;-74
2022/03/01 04:39:52;;;;;;;25.30;15.37;;;-4.20;99.90;;;;;;5013953;28;20046;-73
2022/03/01 04:42:18;;;;;;;19.43;11.23;;;-4.20;99.90;;;;;;5014095;28;20025;-73
2022/03/01 04:44:43;;;;;;;17.53;10.87;;;-4.20;99.90;;;;;;5014259;28;20049;-74
2022/03/01 04:47:09;;;;;;;14.43;8.13;;;-4.20;99.90;;;;;;5014172;28;20032;-74
2022/03/01 04:49:35;;;;;;;18.20;9.73;;;-4.20;99.90;;;;;;4997129;28;20034;-75
2022/03/01 04:52:00;;;;;;;20.53;10.20;;;-4.30;99.90;;;;;;5014051;28;20026;-74
2022/03/01 04:54:26;;;;;;;18.50;10.53;;;-4.30;99.90;;;;;;5013829;28;20026;-75
2022/03/01 04:56:52;;;;;;;18.47;9.97;;;-4.30;99.90;;;;;;4996284;28;20029;-74
2022/03/01 04:59:17;;;;;;;21.53;8.97;;;-4.30;99.90;;;;;;5014057;28;20025;-74
2022/03/01 05:01:43;;;;;;;16.70;8.80;;;-4.30;99.90;;;;;;4996005;28;20060;-74
2022/03/01 05:04:09;;;;;;;14.90;8.63;;;-4.40;99.90;;;;;;5013717;28;20103;-74
2022/03/01 05:06:34;;;;;;;17.10;9.47;;;-4.40;99.90;;;;;;5013762;28;20073;-74
2022/03/01 05:09:00;;;;;;;18.30;9.07;;;-4.40;99.90;;;;;;5013675;28;20041;-73
2022/03/01 05:11:25;;;;;;;16.63;8.50;;;-4.40;99.90;;;;;;5012675;28;20034;-79
2022/03/01 05:13:51;;;;;;;18.10;9.07;;;-4.40;99.90;;;;;;5010311;28;20037;-80
2022/03/01 05:16:18;;;;;;;14.53;7.80;;;-4.40;99.90;;;;;;5010771;28;20022;-80
2022/03/01 05:18:43;;;;;;;21.90;14.43;;;-4.40;99.90;;;;;;4992545;28;20402;-81
2022/03/01 05:21:09;;;;;;;20.60;12.07;;;-4.40;99.90;;;;;;5010750;28;20022;-80
2022/03/01 05:23:35;;;;;;;17.37;9.50;;;-4.40;99.90;;;;;;5010435;28;20032;-80
2022/03/01 05:26:00;;;;;;;18.20;9.73;;;-4.50;99.90;;;;;;4992981;28;20126;-80
2022/03/01 05:28:26;;;;;;;17.10;9.57;;;-4.30;99.90;;;;;;5010621;28;20411;-81
2022/03/01 05:30:51;;;;;;;18.37;10.30;;;-4.10;99.90;;;;;;5011086;28;20816;-81
2022/03/01 05:33:17;;;;;;;26.03;12.93;;;-4.10;99.90;;;;;;4984392;28;20026;-80
2022/03/01 05:35:44;;;;;;;30.10;13.43;;;-4.20;99.90;;;;;;4985693;28;20030;-80
2022/03/01 05:38:10;;;;;;;26.57;14.17;;;-4.30;99.90;;;;;;5008122;28;20032;-81
2022/03/01 05:40:36;;;;;;;25.93;14.23;;;-4.40;99.90;;;;;;5013478;28;20048;-81
2022/03/01 05:43:02;;;;;;;29.33;14.30;;;-4.60;99.90;;;;;;4993420;28;20082;-81
2022/03/01 05:45:28;;;;;;;28.10;14.93;;;-4.60;99.90;;;;;;5006940;28;20036;-80
2022/03/01 05:47:54;;;;;;;20.87;11.43;;;-4.60;99.90;;;;;;4992745;28;20030;-81
2022/03/01 05:50:20;;;;;;;22.53;11.43;;;-4.70;99.90;;;;;;5013261;28;20045;-81
2022/03/01 05:52:47;;;;;;;23.43;11.80;;;-4.70;99.90;;;;;;5011675;28;20079;-81
2022/03/01 05:55:13;;;;;;;24.63;12.13;;;-4.80;99.90;;;;;;4994291;28;20021;-80
2022/03/01 05:57:40;;;;;;;25.83;13.00;;;-4.80;99.90;;;;;;4995315;28;20056;-80
2022/03/01 06:00:15;;;;;;;21.07;11.47;;;-4.80;99.90;;;;;;5013183;28;20018;-80
2022/03/01 06:02:43;;;;;;;22.93;12.30;;;-4.90;99.90;;;;;;5012769;28;20024;-68
2022/03/01 06:05:09;;;;;;;25.70;15.53;;;-4.80;99.90;;;;;;5013275;28;20049;-80
2022/03/01 06:07:35;;;;;;;20.80;10.93;;;-4.90;99.90;;;;;;4995016;28;20768;-80
2022/03/01 06:10:01;;;;;;;19.87;9.60;;;-4.90;99.90;;;;;;4994307;28;20036;-80
2022/03/01 06:12:27;;;;;;;16.20;9.27;;;-4.90;99.90;;;;;;5013300;28;20101;-80
2022/03/01 06:14:52;;;;;;;17.77;9.77;;;-4.90;99.90;;;;;;5012022;28;20459;-79
2022/03/01 06:17:18;;;;;;;23.33;11.57;;;-4.90;99.90;;;;;;5013037;28;20049;-79
2022/03/01 06:19:43;;;;;;;14.57;8.03;;;-4.90;99.90;;;;;;5011340;28;20030;-79
2022/03/01 06:22:09;;;;;;;17.23;8.40;;;-4.90;99.90;;;;;;5011482;28;20485;-79
2022/03/01 06:24:39;;;;;;;14.83;7.50;;;-4.80;99.90;;;;;;5012604;28;20053;-79
2022/03/01 06:27:09;;;;;;;14.53;7.33;;;-4.80;99.90;;;;;;4994674;28;20040;-81
2022/03/01 06:29:35;;;;;;;19.50;8.07;;;-4.80;99.90;;;;;;5012574;28;20040;-81
2022/03/01 06:32:01;;;;;;;14.40;7.47;;;-4.70;99.90;;;;;;5012320;28;20052;-81
2022/03/01 06:34:27;;;;;;;17.70;8.57;;;-4.70;99.90;;;;;;5012202;28;20043;-81
2022/03/01 06:36:53;;;;;;;17.73;8.77;;;-4.60;99.90;;;;;;4994895;28;20022;-75
2022/03/01 06:39:18;;;;;;;19.77;9.50;;;-4.50;99.90;;;;;;4984360;28;20068;-80
2022/03/01 06:41:44;;;;;;;18.27;9.53;;;-4.40;99.90;;;;;;4998922;28;20042;-80
2022/03/01 06:44:10;;;;;;;20.90;10.83;;;-4.20;99.90;;;;;;5006037;28;20026;-81
2022/03/01 06:46:35;;;;;;;20.47;8.20;;;-4.10;99.90;;;;;;4978436;28;20030;-81
2022/03/01 06:49:01;;;;;;;14.90;8.03;;;-4.00;99.90;;;;;;5009294;28;20131;-79
2022/03/01 06:51:27;;;;;;;18.33;7.97;;;-3.80;99.90;;;;;;5009903;28;20053;-80
2022/03/01 06:53:53;;;;;;;15.73;8.27;;;-3.80;99.90;;;;;;5009594;28;20065;-81
2022/03/01 06:56:18;;;;;;;19.67;9.03;;;-3.80;99.90;;;;;;5009357;28;20477;-80
2022/03/01 06:58:44;;;;;;;18.37;8.87;;;-3.80;99.90;;;;;;4992354;28;20033;-80
2022/03/01 07:01:09;;;;;;;14.33;7.90;;;-3.70;99.90;;;;;;5008199;28;20034;-81
2022/03/01 07:03:35;;;;;;;15.60;8.53;;;-3.60;99.90;;;;;;5008936;28;20391;-80
2022/03/01 07:06:01;;;;;;;18.40;7.73;;;-3.60;99.90;;;;;;5009047;28;20492;-81
2022/03/01 07:08:26;;;;;;;19.23;8.33;;;-3.40;99.90;;;;;;5008766;28;20033;-81
2022/03/01 07:10:53;;;;;;;22.10;8.53;;;-3.40;99.90;;;;;;4992003;28;20406;-81
2022/03/01 07:13:19;;;;;;;27.53;12.93;;;-3.30;99.90;;;;;;5009506;28;20525;-81
2022/03/01 07:15:44;;;;;;;24.80;12.17;;;-3.20;99.90;;;;;;4991856;28;20025;-81
2022/03/01 07:18:11;;;;;;;30.30;15.67;;;-3.10;99.90;;;;;;4991233;28;20088;-81
2022/03/01 07:20:36;;;;;;;13.60;7.50;;;-2.90;99.90;;;;;;5010395;28;20048;-81
2022/03/01 07:23:04;;;;;;;25.03;9.73;;;-2.70;99.90;;;;;;5009243;28;20022;-79
2022/03/01 07:25:29;;;;;;;23.57;11.17;;;-2.60;99.90;;;;;;4999572;28;20053;-79
2022/03/01 07:27:55;;;;;;;20.40;9.70;;;-2.50;99.90;;;;;;4985594;28;20066;-79
2022/03/01 07:30:24;;;;;;;23.47;10.33;;;-2.40;99.90;;;;;;4996624;28;20395;-74
2022/03/01 07:32:54;;;;;;;24.00;10.03;;;-2.30;99.90;;;;;;4980457;28;20076;-79
2022/03/01 07:35:23;;;;;;;22.00;8.60;;;-2.10;99.90;;;;;;5011310;28;20076;-75
2022/03/01 07:37:49;;;;;;;26.07;10.73;;;-2.00;99.90;;;;;;5015535;28;20025;-75
2022/03/01 07:40:16;;;;;;;33.50;13.57;;;-1.90;99.90;;;;;;5015316;28;20045;-73
2022/03/01 07:42:43;;;;;;;30.80;12.13;;;-1.70;99.90;;;;;;4998892;28;20022;-74
2022/03/01 07:45:10;;;;;;;20.73;8.20;;;-1.50;99.90;;;;;;5008229;28;20028;-73
2022/03/01 07:47:35;;;;;;;15.03;7.60;;;-1.40;99.90;;;;;;5015022;28;20037;-74
2022/03/01 07:50:01;;;;;;;12.47;6.83;;;-1.30;99.90;;;;;;5014796;28;20030;-75
2022/03/01 07:52:27;;;;;;;16.13;6.40;;;-1.20;99.90;;;;;;5015127;28;20034;-75
2022/03/01 07:54:53;;;;;;;20.57;6.60;;;-1.00;99.90;;;;;;4996597;28;20383;-74
2022/03/01 07:57:19;;;;;;;16.13;7.00;;;-0.90;99.90;;;;;;5004994;28;20105;-80
2022/03/01 07:59:45;;;;;;;13.13;6.77;;;-0.80;99.90;;;;;;4994479;28;20053;-76
2022/03/01 08:02:26;;;;;;;14.00;6.70;;;-0.70;99.90;;;;;;4995345;28;20082;-76
2022/03/01 08:04:51;;;;;;;13.27;6.90;;;-0.60;99.90;;;;;;4986181;28;20026;-74
2022/03/01 08:07:17;;;;;;;16.73;6.93;;;-0.50;99.90;;;;;;4997708;28;20378;-75
2022/03/01 08:09:46;;;;;;;17.33;7.40;;;-0.50;99.90;;;;;;5014547;28;20356;-74
2022/03/01 08:12:11;;;;;;;13.27;7.23;;;-0.40;99.90;;;;;;5014497;28;20026;-74
2022/03/01 08:14:37;;;;;;;15.30;7.57;;;-0.30;99.90;;;;;;4996659;28;20026;-74
2022/03/01 08:17:03;;;;;;;13.97;7.53;;;-0.20;99.90;;;;;;5014340;28;20030;-74
2022/03/01 08:19:29;;;;;;;17.30;7.80;;;-0.10;99.90;;;;;;5014583;28;20112;-73
2022/03/01 08:21:54;;;;;;;16.50;7.13;;;0.10;99.90;;;;;;5014304;28;20110;-74
2022/03/01 08:24:20;;;;;;;70.73;28.23;;;0.20;99.90;;;;;;5014174;28;20041;-74
2022/03/01 08:26:46;;;;;;;25.30;11.47;;;0.30;99.90;;;;;;5014737;28;20094;-76
2022/03/01 08:29:12;;;;;;;21.87;9.03;;;0.40;99.90;;;;;;5014556;28;20032;-76
2022/03/01 08:31:42;;;;;;;14.67;8.03;;;0.50;99.90;;;;;;5013144;28;20057;-75
2022/03/01 08:34:08;;;;;;;15.43;7.67;;;0.80;99.90;;;;;;4996665;28;20034;-75
2022/03/01 08:36:34;;;;;;;14.27;8.37;;;0.80;99.90;;;;;;5014557;28;20123;-75
2022/03/01 08:39:00;;;;;;;17.03;7.63;;;1.00;99.90;;;;;;5014825;28;20033;-75
2022/03/01 08:41:26;;;;;;;16.93;8.43;;;1.10;99.90;;;;;;4996590;28;20030;-76
2022/03/01 08:43:51;;;;;;;16.80;9.00;;;1.40;99.90;;;;;;5014621;28;20026;-75
2022/03/01 08:46:17;;;;;;;13.53;7.33;;;1.60;99.90;;;;;;5013907;28;20018;-75
2022/03/01 08:48:44;;;;;;;17.73;8.00;;;1.60;99.90;;;;;;5013859;28;20022;-76
2022/03/01 08:51:11;;;;;;;13.67;7.90;;;1.60;99.90;;;;;;5013612;28;20046;-75
2022/03/01 08:53:37;;;;;;;13.60;8.23;;;1.80;99.90;;;;;;5014171;28;20022;-75
2022/03/01 08:56:03;;;;;;;16.73;7.87;;;1.90;99.90;;;;;;5014203;28;20028;-75
2022/03/01 08:58:29;;;;;;;14.43;7.93;;;2.20;99.90;;;;;;5013805;28;20022;-75
2022/03/01 09:00:54;;;;;;;18.43;8.07;;;2.50;99.90;;;;;;5013882;28;20032;-75
2022/03/01 09:03:23;;;;;;;12.30;6.83;;;2.70;99.90;;;;;;5013767;28;20033;-75
2022/03/01 09:05:48;;;;;;;9.20;6.23;;;2.80;99.90;;;;;;5013658;28;20100;-74
2022/03/01 09:08:15;;;;;;;10.20;6.23;;;3.50;99.90;;;;;;5013915;28;20109;-75
2022/03/01 09:10:41;;;;;;;11.77;7.07;;;3.60;99.50;;;;;;5013656;28;20022;-75
2022/03/01 09:13:07;;;;;;;11.23;7.23;;;3.70;98.70;;;;;;4995934;28;20084;-75
2022/03/01 09:15:33;;;;;;;10.37;6.73;;;3.40;98.80;;;;;;5013793;28;20076;-74
2022/03/01 09:18:00;;;;;;;15.57;6.80;;;3.60;98.80;;;;;;4995943;28;20057;-74
2022/03/01 09:20:28;;;;;;;13.07;6.80;;;3.80;98.10;;;;;;4995871;28;20534;-74
2022/03/01 09:22:55;;;;;;;18.57;9.77;;;3.80;99.20;;;;;;5011896;28;20786;-80
2022/03/01 09:25:21;;;;;;;30.87;16.23;;;4.00;98.50;;;;;;4989600;28;20061;-80
2022/03/01 09:27:47;;;;;;;26.33;13.20;;;4.10;98.10;;;;;;5007160;28;20066;-80
2022/03/01 09:30:13;;;;;;;18.93;10.03;;;4.10;97.60;;;;;;5007367;28;20034;-79
2022/03/01 09:32:40;;;;;;;39.50;18.50;;;4.20;97.00;;;;;;5007215;28;20038;-67
2022/03/01 09:35:06;;;;;;;20.30;10.93;;;4.10;96.80;;;;;;5001960;28;20033;-67
2022/03/01 09:37:33;;;;;;;53.93;29.03;;;4.00;96.80;;;;;;5006572;28;20050;-67
2022/03/01 09:39:59;;;;;;;12.17;6.97;;;4.20;97.00;;;;;;5006818;28;20131;-68
2022/03/01 09:42:26;;;;;;;15.27;6.40;;;4.30;96.80;;;;;;5007265;28;20047;-67
2022/03/01 09:44:54;;;;;;;10.97;6.43;;;4.30;96.50;;;;;;5004151;28;20022;-80
2022/03/01 09:47:19;;;;;;;13.20;6.33;;;4.50;96.10;;;;;;5004553;28;20466;-78
2022/03/01 09:49:45;;;;;;;13.97;7.00;;;4.60;95.70;;;;;;5007091;28;20040;-78
2022/03/01 09:52:11;;;;;;;13.20;7.53;;;4.50;96.70;;;;;;4989433;28;20030;-78
2022/03/01 09:54:36;;;;;;;12.13;6.50;;;4.70;95.60;;;;;;5004158;28;20125;-78
2022/03/01 09:57:02;;;;;;;9.00;6.07;;;4.80;94.50;;;;;;4974905;28;20064;-78
2022/03/01 09:59:28;;;;;;;10.70;6.67;;;5.20;93.50;;;;;;4988291;28;20054;-79
2022/03/01 10:01:54;;;;;;;11.27;5.73;;;5.50;92.70;;;;;;4995681;28;20045;-79
2022/03/01 10:04:20;;;;;;;11.17;6.60;;;5.30;92.10;;;;;;4984308;28;20030;-79
2022/03/01 10:06:48;;;;;;;12.47;6.40;;;5.80;91.70;;;;;;5004481;28;20033;-79
2022/03/01 10:09:16;;;;;;;12.03;6.87;;;5.70;91.10;;;;;;5007853;28;20030;-79
2022/03/01 10:11:43;;;;;;;11.70;6.80;;;5.60;91.80;;;;;;5008951;28;20022;-79
2022/03/01 10:14:09;;;;;;;15.63;7.70;;;5.70;90.50;;;;;;5007833;28;20026;-79
2022/03/01 10:16:45;;;;;;;16.10;8.53;;;5.90;90.90;;;;;;5001358;28;20019;-79
2022/03/01 10:19:19;;;;;;;12.37;7.20;;;6.00;89.50;;;;;;4976039;28;20041;-79
2022/03/01 10:21:56;;;;;;;11.63;6.37;;;5.90;90.00;;;;;;5002476;28;20039;-79
2022/03/01 10:24:22;;;;;;;11.30;6.00;;;6.50;89.60;;;;;;4982918;28;20034;-79
2022/03/01 10:26:49;;;;;;;11.03;6.37;;;6.30;88.20;;;;;;5003334;28;20030;-79
2022/03/01 10:29:15;;;;;;;10.30;6.27;;;6.10;87.40;;;;;;5006649;28;20538;-78
2022/03/01 10:31:42;;;;;;;14.53;6.60;;;6.00;89.50;;;;;;5003581;28;20487;-78
2022/03/01 10:34:10;;;;;;;10.50;6.27;;;6.10;86.50;;;;;;5001070;28;20030;-78
2022/03/01 10:36:46;;;;;;;12.10;6.13;;;6.40;86.20;;;;;;4989567;28;20049;-77
2022/03/01 10:39:19;;;;;;;11.30;5.87;;;6.40;86.90;;;;;;5000330;28;20377;-77
2022/03/01 10:41:47;;;;;;;9.67;6.00;;;6.80;84.30;;;;;;4979561;28;20483;-78
2022/03/01 10:44:17;;;;;;;10.40;6.10;;;7.20;82.10;;;;;;4997789;28;21639;-77
2022/03/01 10:46:46;;;;;;;14.10;6.43;;;7.40;81.30;;;;;;4999491;28;20031;-77
2022/03/01 10:49:16;;;;;;;12.43;6.53;;;8.20;79.00;;;;;;5000578;28;20034;-77
2022/03/01 10:51:56;;;;;;;8.77;6.03;;;7.90;77.90;;;;;;4996998;28;20030;-77
2022/03/01 10:54:32;;;;;;;9.43;5.60;;;8.10;77.30;;;;;;4996391;28;20034;-77
2022/03/01 10:56:59;;;;;;;9.87;6.13;;;8.20;74.50;;;;;;4982261;28;20520;-78
2022/03/01 10:59:33;;;;;;;10.47;6.13;;;8.00;76.30;;;;;;4997329;28;20054;-79
2022/03/01 11:02:00;;;;;;;9.02;6.32;;;8.00;76.90;;;;;;4999284;28;20065;-79
2022/03/01 11:04:26;;;;;;;13.07;6.67;;;7.60;76.30;;;;;;4999494;28;20038;-79
2022/03/01 11:06:54;;;;;;;11.20;5.60;;;8.00;78.40;;;;;;5006651;28;20034;-79
2022/03/01 11:09:23;;;;;;;10.77;6.87;;;8.20;73.30;;;;;;4994882;28;20121;-79
2022/03/01 11:11:51;;;;;;;11.23;5.77;;;8.40;72.60;;;;;;4997807;28;20117;-79
2022/03/01 11:14:26;;;;;;;13.80;8.17;;;8.40;71.50;;;;;;4986450;28;20030;-79
2022/03/01 11:17:13;;;;;;;10.98;6.28;;;8.20;71.50;;;;;;4986922;28;20525;-79
2022/03/01 11:19:40;;;;;;;10.93;5.50;;;8.50;69.90;;;;;;4998001;28;20041;-79
2022/03/01 11:22:17;;;;;;;12.47;5.47;;;8.30;68.70;;;;;;5001071;28;20634;-79
2022/03/01 11:24:43;;;;;;;7.70;5.23;;;8.30;69.80;;;;;;4979495;28;20075;-79
2022/03/01 11:27:08;;;;;;;10.33;5.90;;;8.50;67.70;;;;;;4998011;28;20027;-78
2022/03/01 11:29:39;;;;;;;8.77;5.73;;;8.60;68.70;;;;;;4999528;28;20133;-79
2022/03/01 11:32:12;;;;;;;8.97;5.23;;;8.50;69.80;;;;;;4998223;28;20062;-79
2022/03/01 11:34:38;;;;;;;12.57;5.50;;;8.30;67.50;;;;;;4997801;28;20026;-78
2022/03/01 11:37:03;;;;;;;8.97;5.77;;;8.90;66.30;;;;;;4983838;28;20470;-79
2022/03/01 11:39:31;;;;;;;9.40;5.90;;;9.00;63.20;;;;;;4994567;28;20169;-79
2022/03/01 11:42:09;;;;;;;10.43;7.53;;;8.90;65.10;;;;;;4993753;28;20022;-79
2022/03/01 11:44:40;;;;;;;15.00;8.50;;;9.10;65.10;;;;;;4975595;28;20034;-79
2022/03/01 11:47:09;;;;;;;63.53;39.77;;;9.40;63.30;;;;;;4995492;28;20029;-79
2022/03/01 11:49:37;;;;;;;10.70;6.73;;;9.50;61.70;;;;;;4993928;28;20517;-79
2022/03/01 11:52:03;;;;;;;27.63;16.90;;;9.60;61.20;;;;;;4992338;28;20589;-78
2022/03/01 11:54:31;;;;;;;9.27;5.93;;;9.80;61.20;;;;;;4995547;28;20033;-79
2022/03/01 11:56:58;;;;;;;10.35;6.97;;;9.90;61.00;;;;;;4992330;28;20030;-78
2022/03/01 11:59:26;;;;;;;9.52;5.95;;;10.00;56.80;;;;;;4995780;28;20097;-78
2022/03/01 12:01:53;;;;;;;12.68;6.18;;;9.70;58.60;;;;;;4997821;28;20029;-79
2022/03/01 12:04:48;;;;;;;7.47;4.55;;;9.80;56.20;;;;;;4996322;28;20453;-79
2022/03/01 12:07:16;;;;;;;;;;;9.80;58.80;;;;;;4991547;28;20038;-79
2022/03/01 12:09:42;;;;;;;21.90;9.55;;;9.50;59.00;;;;;;4999805;28;19921;-79
2022/03/01 12:12:09;;;;;;;13.18;6.38;;;10.10;56.90;;;;;;4979776;28;20477;-79
2022/03/01 12:14:38;;;;;;;6.28;4.47;;;10.30;54.70;;;;;;4998426;28;20034;-78
2022/03/01 12:17:18;;;;;;;6.80;4.07;;;10.10;54.40;;;;;;4996775;28;20390;-78
2022/03/01 12:19:44;;;;;;;8.45;5.30;;;10.00;53.20;;;;;;5000608;28;20022;-79
2022/03/01 12:22:13;;;;;;;17.05;8.52;;;9.90;52.40;;;;;;4997391;28;20485;-78
2022/03/01 12:24:39;;;;;;;10.55;6.78;;;10.20;52.50;;;;;;4998711;28;20034;-78
2022/03/01 12:27:04;;;;;;;22.70;11.25;;;10.60;53.00;;;;;;4998086;28;20097;-78
2022/03/01 12:29:36;;;;;;;7.03;4.60;;;10.60;51.90;;;;;;4995541;28;20034;-78
2022/03/01 12:32:10;;;;;;;22.95;12.50;;;10.90;52.60;;;;;;5002001;28;20110;-78
2022/03/01 12:34:38;;;;;;;11.30;6.38;;;10.80;52.60;;;;;;4994651;28;20038;-76
2022/03/01 12:37:07;;;;;;;15.70;7.03;;;10.70;52.00;;;;;;5000321;28;20037;-76